sensor_id;sensor_type;location;lat;lon;timestamp;temperature;humidity
58153;DHT22;43967;51.634;5.566;2022-10-22T00:00:24;21.20;72.90
58153;DHT22;43967;51.634;5.566;2022-10-22T00:05:25;21.20;72.90
58153;DHT22;43967;51.634;5.566;2022-10-22T00:10:26;21.20;72.80
58153;DHT22;43967;51.634;5.566;2022-10-22T00:15:27;21.20;72.70
58153;DHT22;43967;51.634;5.566;2022-10-22T00:20:28;21.20;72.70
58153;DHT22;43967;51.634;5.566;2022-10-22T00:25:30;21.20;72.70
58153;DHT22;43967;51.634;5.566;2022-10-22T00:30:31;21.20;72.70
58153;DHT22;43967;51.634;5.566;2022-10-22T00:35:32;21.10;72.50
58153;DHT22;43967;51.634;5.566;2022-10-22T00:40:33;21.20;72.50
58153;DHT22;43967;51.634;5.566;2022-10-22T00:45:34;21.20;72.50
58153;DHT22;43967;51.634;5.566;2022-10-22T00:50:46;21.10;72.40
58153;DHT22;43967;51.634;5.566;2022-10-22T00:55:51;21.10;72.30
58153;DHT22;43967;51.634;5.566;2022-10-22T01:00:53;21.10;72.30
58153;DHT22;43967;51.634;5.566;2022-10-22T01:05:59;21.10;72.20
58153;DHT22;43967;51.634;5.566;2022-10-22T01:11:13;21.10;72.20
58153;DHT22;43967;51.634;5.566;2022-10-22T01:21:47;21.10;72.10
58153;DHT22;43967;51.634;5.566;2022-10-22T01:27:08;21.10;72.10
58153;DHT22;43967;51.634;5.566;2022-10-22T01:32:17;21.10;72.00
58153;DHT22;43967;51.634;5.566;2022-10-22T01:37:21;21.10;72.00
58153;DHT22;43967;51.634;5.566;2022-10-22T01:42:23;21.00;71.90
58153;DHT22;43967;51.634;5.566;2022-10-22T01:47:39;21.00;71.90
58153;DHT22;43967;51.634;5.566;2022-10-22T02:09:13;21.00;71.70
58153;DHT22;43967;51.634;5.566;2022-10-22T02:14:15;21.00;71.70
58153;DHT22;43967;51.634;5.566;2022-10-22T02:19:25;21.00;71.70
58153;DHT22;43967;51.634;5.566;2022-10-22T02:24:26;21.00;71.60
58153;DHT22;43967;51.634;5.566;2022-10-22T02:34:32;21.00;71.60
58153;DHT22;43967;51.634;5.566;2022-10-22T02:39:35;21.00;71.50
58153;DHT22;43967;51.634;5.566;2022-10-22T02:44:36;21.00;71.50
58153;DHT22;43967;51.634;5.566;2022-10-22T02:49:37;21.00;71.50
58153;DHT22;43967;51.634;5.566;2022-10-22T02:54:38;21.00;71.50
58153;DHT22;43967;51.634;5.566;2022-10-22T02:59:39;21.00;71.50
58153;DHT22;43967;51.634;5.566;2022-10-22T03:04:40;21.00;71.50
58153;DHT22;43967;51.634;5.566;2022-10-22T03:09:41;21.00;71.40
58153;DHT22;43967;51.634;5.566;2022-10-22T03:14:42;20.90;71.30
58153;DHT22;43967;51.634;5.566;2022-10-22T03:20:02;20.90;71.20
58153;DHT22;43967;51.634;5.566;2022-10-22T03:25:08;21.00;71.30
58153;DHT22;43967;51.634;5.566;2022-10-22T03:30:10;20.90;71.20
58153;DHT22;43967;51.634;5.566;2022-10-22T03:35:11;20.90;71.20
58153;DHT22;43967;51.634;5.566;2022-10-22T03:40:12;20.90;71.20
58153;DHT22;43967;51.634;5.566;2022-10-22T03:45:13;20.90;71.20
58153;DHT22;43967;51.634;5.566;2022-10-22T03:50:15;20.90;71.20
58153;DHT22;43967;51.634;5.566;2022-10-22T03:55:16;20.90;71.20
58153;DHT22;43967;51.634;5.566;2022-10-22T04:00:17;20.90;71.20
58153;DHT22;43967;51.634;5.566;2022-10-22T04:05:18;20.90;71.10
58153;DHT22;43967;51.634;5.566;2022-10-22T04:10:19;20.90;71.20
58153;DHT22;43967;51.634;5.566;2022-10-22T04:15:20;20.90;71.20
58153;DHT22;43967;51.634;5.566;2022-10-22T04:20:21;20.90;71.20
58153;DHT22;43967;51.634;5.566;2022-10-22T04:25:22;20.90;71.10
58153;DHT22;43967;51.634;5.566;2022-10-22T04:30:23;20.90;71.10
58153;DHT22;43967;51.634;5.566;2022-10-22T04:35:25;20.90;71.10
58153;DHT22;43967;51.634;5.566;2022-10-22T04:40:26;20.90;71.10
58153;DHT22;43967;51.634;5.566;2022-10-22T04:45:27;20.90;71.10
58153;DHT22;43967;51.634;5.566;2022-10-22T04:50:28;20.90;71.10
58153;DHT22;43967;51.634;5.566;2022-10-22T04:55:29;20.90;71.10
58153;DHT22;43967;51.634;5.566;2022-10-22T05:00:30;20.80;71.00
58153;DHT22;43967;51.634;5.566;2022-10-22T05:05:31;20.90;71.00
58153;DHT22;43967;51.634;5.566;2022-10-22T05:10:33;20.90;71.00
58153;DHT22;43967;51.634;5.566;2022-10-22T05:15:35;20.80;70.90
58153;DHT22;43967;51.634;5.566;2022-10-22T05:20:39;20.80;70.90
58153;DHT22;43967;51.634;5.566;2022-10-22T05:25:40;20.80;70.90
58153;DHT22;43967;51.634;5.566;2022-10-22T05:30:41;20.80;70.90
58153;DHT22;43967;51.634;5.566;2022-10-22T05:35:42;20.80;70.90
58153;DHT22;43967;51.634;5.566;2022-10-22T05:40:44;20.80;70.80
58153;DHT22;43967;51.634;5.566;2022-10-22T05:45:45;20.80;70.90
58153;DHT22;43967;51.634;5.566;2022-10-22T05:50:46;20.80;70.80
58153;DHT22;43967;51.634;5.566;2022-10-22T05:55:47;20.80;70.90
58153;DHT22;43967;51.634;5.566;2022-10-22T06:00:48;20.80;70.80
58153;DHT22;43967;51.634;5.566;2022-10-22T06:05:49;20.80;70.80
58153;DHT22;43967;51.634;5.566;2022-10-22T06:10:50;20.80;70.80
58153;DHT22;43967;51.634;5.566;2022-10-22T06:15:51;20.80;70.80
58153;DHT22;43967;51.634;5.566;2022-10-22T06:20:52;20.80;70.80
58153;DHT22;43967;51.634;5.566;2022-10-22T06:25:57;20.80;70.80
58153;DHT22;43967;51.634;5.566;2022-10-22T06:31:00;20.70;70.70
58153;DHT22;43967;51.634;5.566;2022-10-22T06:36:09;20.80;70.90
58153;DHT22;43967;51.634;5.566;2022-10-22T06:41:12;20.70;70.90
58153;DHT22;43967;51.634;5.566;2022-10-22T06:46:16;20.70;71.20
58153;DHT22;43967;51.634;5.566;2022-10-22T06:51:18;20.70;71.40
58153;DHT22;43967;51.634;5.566;2022-10-22T06:56:21;20.70;71.40
58153;DHT22;43967;51.634;5.566;2022-10-22T07:01:33;20.70;71.50
58153;DHT22;43967;51.634;5.566;2022-10-22T07:06:34;20.70;71.60
58153;DHT22;43967;51.634;5.566;2022-10-22T07:11:40;20.60;70.40
58153;DHT22;43967;51.634;5.566;2022-10-22T07:16:41;20.60;71.60
58153;DHT22;43967;51.634;5.566;2022-10-22T07:21:43;20.60;71.70
58153;DHT22;43967;51.634;5.566;2022-10-22T07:26:45;20.70;71.80
58153;DHT22;43967;51.634;5.566;2022-10-22T07:31:46;20.70;72.10
58153;DHT22;43967;51.634;5.566;2022-10-22T07:36:47;20.70;72.40
58153;DHT22;43967;51.634;5.566;2022-10-22T07:41:49;20.70;72.50
58153;DHT22;43967;51.634;5.566;2022-10-22T07:46:50;20.80;72.70
58153;DHT22;43967;51.634;5.566;2022-10-22T07:51:51;20.80;73.00
58153;DHT22;43967;51.634;5.566;2022-10-22T07:56:52;20.80;72.90
58153;DHT22;43967;51.634;5.566;2022-10-22T08:01:53;20.70;72.70
58153;DHT22;43967;51.634;5.566;2022-10-22T08:06:54;20.60;72.50
58153;DHT22;43967;51.634;5.566;2022-10-22T08:11:55;20.60;72.70
58153;DHT22;43967;51.634;5.566;2022-10-22T08:16:56;20.60;72.50
58153;DHT22;43967;51.634;5.566;2022-10-22T08:21:58;20.60;72.50
58153;DHT22;43967;51.634;5.566;2022-10-22T08:26:59;20.60;72.70
58153;DHT22;43967;51.634;5.566;2022-10-22T08:32:02;20.70;72.50
58153;DHT22;43967;51.634;5.566;2022-10-22T08:37:04;20.70;72.60
58153;DHT22;43967;51.634;5.566;2022-10-22T08:42:39;20.70;72.60
58153;DHT22;43967;51.634;5.566;2022-10-22T08:48:15;20.70;72.60
58153;DHT22;43967;51.634;5.566;2022-10-22T08:53:26;20.70;72.60
58153;DHT22;43967;51.634;5.566;2022-10-22T08:58:37;20.70;72.70
58153;DHT22;43967;51.634;5.566;2022-10-22T09:08:51;20.70;72.70
58153;DHT22;43967;51.634;5.566;2022-10-22T09:13:57;20.70;72.70
58153;DHT22;43967;51.634;5.566;2022-10-22T09:19:05;20.70;72.80
58153;DHT22;43967;51.634;5.566;2022-10-22T09:29:32;20.70;72.90
58153;DHT22;43967;51.634;5.566;2022-10-22T09:34:33;20.70;72.10
58153;DHT22;43967;51.634;5.566;2022-10-22T09:39:40;20.70;71.50
58153;DHT22;43967;51.634;5.566;2022-10-22T09:44:55;20.50;70.90
58153;DHT22;43967;51.634;5.566;2022-10-22T09:55:16;20.40;71.40
58153;DHT22;43967;51.634;5.566;2022-10-22T10:00:19;20.40;71.90
58153;DHT22;43967;51.634;5.566;2022-10-22T10:05:26;20.40;71.70
58153;DHT22;43967;51.634;5.566;2022-10-22T10:10:33;20.40;71.70
58153;DHT22;43967;51.634;5.566;2022-10-22T10:15:46;20.40;71.80
58153;DHT22;43967;51.634;5.566;2022-10-22T10:21:03;20.40;71.70
58153;DHT22;43967;51.634;5.566;2022-10-22T10:31:46;20.40;71.80
58153;DHT22;43967;51.634;5.566;2022-10-22T10:37:00;20.50;72.60
58153;DHT22;43967;51.634;5.566;2022-10-22T10:42:40;20.50;71.90
58153;DHT22;43967;51.634;5.566;2022-10-22T10:47:48;20.50;71.90
58153;DHT22;43967;51.634;5.566;2022-10-22T10:58:40;20.60;71.90
58153;DHT22;43967;51.634;5.566;2022-10-22T11:09:24;20.60;71.80
58153;DHT22;43967;51.634;5.566;2022-10-22T11:14:31;20.60;71.90
58153;DHT22;43967;51.634;5.566;2022-10-22T11:20:01;20.60;72.00
58153;DHT22;43967;51.634;5.566;2022-10-22T11:25:37;20.60;72.10
58153;DHT22;43967;51.634;5.566;2022-10-22T11:30:42;20.60;72.20
58153;DHT22;43967;51.634;5.566;2022-10-22T11:35:46;20.60;72.10
58153;DHT22;43967;51.634;5.566;2022-10-22T11:46:26;20.70;72.40
58153;DHT22;43967;51.634;5.566;2022-10-22T11:51:32;20.60;72.20
58153;DHT22;43967;51.634;5.566;2022-10-22T11:56:37;20.60;72.50
58153;DHT22;43967;51.634;5.566;2022-10-22T12:01:41;20.60;72.20
58153;DHT22;43967;51.634;5.566;2022-10-22T12:06:54;20.70;72.70
58153;DHT22;43967;51.634;5.566;2022-10-22T12:12:22;21.00;72.00
58153;DHT22;43967;51.634;5.566;2022-10-22T12:17:24;20.90;72.00
58153;DHT22;43967;51.634;5.566;2022-10-22T12:22:33;20.90;72.10
58153;DHT22;43967;51.634;5.566;2022-10-22T12:27:39;20.90;71.70
58153;DHT22;43967;51.634;5.566;2022-10-22T12:32:40;21.00;72.00
58153;DHT22;43967;51.634;5.566;2022-10-22T12:37:41;21.00;71.60
58153;DHT22;43967;51.634;5.566;2022-10-22T12:42:54;21.00;71.50
58153;DHT22;43967;51.634;5.566;2022-10-22T12:47:57;21.10;71.30
58153;DHT22;43967;51.634;5.566;2022-10-22T12:52:59;21.10;71.30
58153;DHT22;43967;51.634;5.566;2022-10-22T12:58:04;21.10;71.20
58153;DHT22;43967;51.634;5.566;2022-10-22T13:03:06;21.10;71.30
58153;DHT22;43967;51.634;5.566;2022-10-22T13:08:15;21.20;71.30
58153;DHT22;43967;51.634;5.566;2022-10-22T13:13:30;21.20;71.30
58153;DHT22;43967;51.634;5.566;2022-10-22T13:18:32;21.20;71.30
58153;DHT22;43967;51.634;5.566;2022-10-22T13:23:33;21.20;71.30
58153;DHT22;43967;51.634;5.566;2022-10-22T13:28:34;21.30;71.40
58153;DHT22;43967;51.634;5.566;2022-10-22T13:33:40;21.30;71.20
58153;DHT22;43967;51.634;5.566;2022-10-22T13:38:43;21.30;71.30
58153;DHT22;43967;51.634;5.566;2022-10-22T13:43:44;21.30;71.20
58153;DHT22;43967;51.634;5.566;2022-10-22T13:48:47;21.30;71.10
58153;DHT22;43967;51.634;5.566;2022-10-22T13:53:51;21.20;70.90
58153;DHT22;43967;51.634;5.566;2022-10-22T13:58:53;21.10;70.90
58153;DHT22;43967;51.634;5.566;2022-10-22T14:03:56;21.10;71.60
58153;DHT22;43967;51.634;5.566;2022-10-22T14:09:01;21.10;71.00
58153;DHT22;43967;51.634;5.566;2022-10-22T14:14:02;21.10;70.80
58153;DHT22;43967;51.634;5.566;2022-10-22T14:19:06;21.20;70.70
58153;DHT22;43967;51.634;5.566;2022-10-22T14:24:10;21.20;70.70
58153;DHT22;43967;51.634;5.566;2022-10-22T14:29:11;21.20;70.60
58153;DHT22;43967;51.634;5.566;2022-10-22T14:34:13;21.20;70.50
58153;DHT22;43967;51.634;5.566;2022-10-22T14:39:15;21.20;70.50
58153;DHT22;43967;51.634;5.566;2022-10-22T14:44:16;21.20;70.50
58153;DHT22;43967;51.634;5.566;2022-10-22T14:49:17;21.20;70.50
58153;DHT22;43967;51.634;5.566;2022-10-22T14:54:18;21.30;70.60
58153;DHT22;43967;51.634;5.566;2022-10-22T14:59:19;21.30;70.60
58153;DHT22;43967;51.634;5.566;2022-10-22T15:04:21;21.30;70.60
58153;DHT22;43967;51.634;5.566;2022-10-22T15:09:23;21.30;70.50
58153;DHT22;43967;51.634;5.566;2022-10-22T15:14:24;21.30;70.50
58153;DHT22;43967;51.634;5.566;2022-10-22T15:19:25;21.20;70.50
58153;DHT22;43967;51.634;5.566;2022-10-22T15:24:26;21.20;70.50
58153;DHT22;43967;51.634;5.566;2022-10-22T15:29:28;21.20;70.50
58153;DHT22;43967;51.634;5.566;2022-10-22T15:34:32;21.20;70.50
58153;DHT22;43967;51.634;5.566;2022-10-22T15:39:33;21.20;70.50
58153;DHT22;43967;51.634;5.566;2022-10-22T15:44:35;21.20;70.50
58153;DHT22;43967;51.634;5.566;2022-10-22T15:49:46;21.20;70.50
58153;DHT22;43967;51.634;5.566;2022-10-22T15:54:47;21.10;70.40
58153;DHT22;43967;51.634;5.566;2022-10-22T15:59:48;21.10;70.40
58153;DHT22;43967;51.634;5.566;2022-10-22T16:04:49;21.10;70.50
58153;DHT22;43967;51.634;5.566;2022-10-22T16:09:57;21.10;70.50
58153;DHT22;43967;51.634;5.566;2022-10-22T16:14:58;21.10;70.50
58153;DHT22;43967;51.634;5.566;2022-10-22T16:19:59;21.10;70.50
58153;DHT22;43967;51.634;5.566;2022-10-22T16:25:00;21.10;70.60
58153;DHT22;43967;51.634;5.566;2022-10-22T16:30:01;21.10;70.60
58153;DHT22;43967;51.634;5.566;2022-10-22T16:35:04;21.10;70.60
58153;DHT22;43967;51.634;5.566;2022-10-22T16:40:06;21.00;70.50
58153;DHT22;43967;51.634;5.566;2022-10-22T16:45:07;21.00;70.50
58153;DHT22;43967;51.634;5.566;2022-10-22T16:50:09;21.00;70.50
58153;DHT22;43967;51.634;5.566;2022-10-22T16:55:10;21.00;70.40
58153;DHT22;43967;51.634;5.566;2022-10-22T17:00:11;21.00;70.40
58153;DHT22;43967;51.634;5.566;2022-10-22T17:05:13;21.00;70.40
58153;DHT22;43967;51.634;5.566;2022-10-22T17:10:14;21.00;70.40
58153;DHT22;43967;51.634;5.566;2022-10-22T17:15:15;21.00;70.40
58153;DHT22;43967;51.634;5.566;2022-10-22T17:20:17;21.00;70.40
58153;DHT22;43967;51.634;5.566;2022-10-22T17:25:21;21.00;70.40
58153;DHT22;43967;51.634;5.566;2022-10-22T17:30:23;21.00;71.00
58153;DHT22;43967;51.634;5.566;2022-10-22T17:35:24;21.00;70.40
58153;DHT22;43967;51.634;5.566;2022-10-22T17:40:25;21.00;70.40
58153;DHT22;43967;51.634;5.566;2022-10-22T17:45:26;21.00;70.40
58153;DHT22;43967;51.634;5.566;2022-10-22T17:50:27;21.00;70.40
58153;DHT22;43967;51.634;5.566;2022-10-22T17:55:28;20.90;70.30
58153;DHT22;43967;51.634;5.566;2022-10-22T18:00:29;20.90;70.10
58153;DHT22;43967;51.634;5.566;2022-10-22T18:05:32;20.90;70.10
58153;DHT22;43967;51.634;5.566;2022-10-22T18:10:38;20.80;70.20
58153;DHT22;43967;51.634;5.566;2022-10-22T18:15:40;20.90;70.40
58153;DHT22;43967;51.634;5.566;2022-10-22T18:20:46;20.90;70.40
58153;DHT22;43967;51.634;5.566;2022-10-22T18:25:48;21.00;70.50
58153;DHT22;43967;51.634;5.566;2022-10-22T18:30:49;21.00;70.50
58153;DHT22;43967;51.634;5.566;2022-10-22T21:49:34;20.70;71.00
58153;DHT22;43967;51.634;5.566;2022-10-22T22:01:29;20.80;71.00
58153;DHT22;43967;51.634;5.566;2022-10-22T22:06:30;20.80;70.80
58153;DHT22;43967;51.634;5.566;2022-10-22T22:11:31;20.80;70.70
58153;DHT22;43967;51.634;5.566;2022-10-22T22:16:33;20.80;70.70
58153;DHT22;43967;51.634;5.566;2022-10-22T22:21:36;20.80;70.60
58153;DHT22;43967;51.634;5.566;2022-10-22T22:26:38;20.80;70.60
58153;DHT22;43967;51.634;5.566;2022-10-22T22:31:39;20.80;70.50
58153;DHT22;43967;51.634;5.566;2022-10-22T22:36:42;20.80;70.50
58153;DHT22;43967;51.634;5.566;2022-10-22T22:41:44;20.80;70.50
58153;DHT22;43967;51.634;5.566;2022-10-22T22:46:45;20.80;70.40
58153;DHT22;43967;51.634;5.566;2022-10-22T22:51:47;20.70;70.30
58153;DHT22;43967;51.634;5.566;2022-10-22T22:56:49;20.70;70.30
58153;DHT22;43967;51.634;5.566;2022-10-22T23:01:50;20.80;70.30
58153;DHT22;43967;51.634;5.566;2022-10-22T23:06:51;20.70;70.20
58153;DHT22;43967;51.634;5.566;2022-10-22T23:11:52;20.80;70.20
58153;DHT22;43967;51.634;5.566;2022-10-22T23:16:53;20.70;70.10
58153;DHT22;43967;51.634;5.566;2022-10-22T23:21:55;20.70;70.10
58153;DHT22;43967;51.634;5.566;2022-10-22T23:26:59;20.70;70.10
58153;DHT22;43967;51.634;5.566;2022-10-22T23:32:06;20.70;70.00
58153;DHT22;43967;51.634;5.566;2022-10-22T23:37:10;20.70;70.10
58153;DHT22;43967;51.634;5.566;2022-10-22T23:42:11;20.70;70.00
58153;DHT22;43967;51.634;5.566;2022-10-22T23:47:12;20.70;70.00
58153;DHT22;43967;51.634;5.566;2022-10-22T23:52:14;20.70;70.00
58153;DHT22;43967;51.634;5.566;2022-10-22T23:57:15;20.70;70.00
